Time;durP1;ratioP1;P1;durP2;ratioP2;P2;SDS_P1;SDS_P2;PMS_P1;PMS_P2;Temp;Humidity;BMP_temperature;BMP_pressure;BME280_temperature;BME280_humidity;BME280_pressure;Samples;Min_cycle;Max_cycle;Signal;HPM_P1;HPM_P2
2023/06/28 00:01:14;;;;;;;11.57;8.90;;;;;19.80;96900.00;;;;5020364;28;20241;-88
2023/06/28 00:04:03;;;;;;;14.07;8.87;;;;;19.80;96907.00;;;;5027058;28;20216;-88
2023/06/28 00:06:54;;;;;;;10.37;9.23;;;;;19.90;96900.00;;;;5023126;28;20236;-88
2023/06/28 00:09:43;;;;;;;11.47;9.73;;;;;19.70;96891.00;;;;5022994;28;20204;-88
2023/06/28 00:12:33;;;;;;;13.20;9.57;;;;;19.70;96883.00;;;;5019758;28;20206;-88
2023/06/28 00:15:23;;;;;;;11.97;8.80;;;;;19.60;96889.00;;;;5023400;28;20291;-87
2023/06/28 00:18:12;;;;;;;10.00;9.00;;;;;19.50;96885.00;;;;5030414;28;20221;-88
2023/06/28 00:21:02;;;;;;;12.47;9.20;;;;;19.50;96881.00;;;;5029251;28;20701;-88
2023/06/28 00:23:53;;;;;;;8.67;7.73;;;;;19.50;96871.00;;;;5030829;28;20208;-88
2023/06/28 00:26:42;;;;;;;9.40;7.80;;;;;19.50;96871.00;;;;5013699;28;20216;-89
2023/06/28 00:29:32;;;;;;;11.80;8.10;;;;;19.50;96860.00;;;;5022897;28;20197;-88
2023/06/28 00:32:21;;;;;;;9.00;7.40;;;;;19.40;96859.00;;;;5028790;28;20263;-87
2023/06/28 00:35:11;;;;;;;10.67;9.13;;;;;19.40;96861.00;;;;5018755;28;20253;-87
2023/06/28 00:38:00;;;;;;;12.43;8.77;;;;;19.30;96861.00;;;;5025625;28;20394;-90
2023/06/28 00:40:51;;;;;;;9.60;8.67;;;;;19.30;96867.00;;;;5025127;28;20216;-88
2023/06/28 00:43:40;;;;;;;10.50;9.40;;;;;19.20;96871.00;;;;5025949;28;20822;-87
2023/06/28 00:46:29;;;;;;;9.27;7.33;;;;;19.10;96866.00;;;;5028210;28;20201;-88
2023/06/28 00:49:18;;;;;;;8.17;7.27;;;;;19.00;96858.00;;;;5023667;28;20254;-88
2023/06/28 00:52:08;;;;;;;11.17;9.33;;;;;18.80;96851.00;;;;5024993;28;20225;-88
2023/06/28 00:54:58;;;;;;;11.53;8.80;;;;;19.00;96850.00;;;;5022282;28;20209;-88
2023/06/28 00:57:49;;;;;;;9.87;7.53;;;;;18.70;96846.00;;;;5019880;28;20198;-89
2023/06/28 01:00:38;;;;;;;10.70;8.03;;;;;18.90;96862.00;;;;5020407;28;20608;-88
2023/06/28 01:03:27;;;;;;;12.70;7.57;;;;;18.90;96859.00;;;;5027401;28;20209;-88
2023/06/28 01:06:16;;;;;;;9.60;7.70;;;;;18.80;96854.00;;;;5023533;28;20219;-88
2023/06/28 01:09:07;;;;;;;10.90;7.90;;;;;18.70;96857.00;;;;5026557;28;20212;-87
2023/06/28 01:11:57;;;;;;;9.17;7.97;;;;;18.50;96856.00;;;;5026334;28;20233;-87
2023/06/28 01:14:48;;;;;;;9.10;7.40;;;;;18.40;96861.00;;;;5024668;28;20198;-88
2023/06/28 01:17:37;;;;;;;10.53;7.47;;;;;18.20;96854.00;;;;5025890;28;20205;-89
2023/06/28 01:20:26;;;;;;;10.83;7.50;;;;;18.10;96853.00;;;;5017060;28;20287;-87
2023/06/28 01:23:17;;;;;;;9.80;7.73;;;;;18.30;96858.00;;;;5024763;28;20236;-88
2023/06/28 01:26:07;;;;;;;9.63;8.20;;;;;18.70;96871.00;;;;5022983;28;20214;-88
2023/06/28 01:28:57;;;;;;;10.03;9.03;;;;;18.70;96883.00;;;;5016718;28;20205;-88
2023/06/28 01:31:47;;;;;;;12.43;9.73;;;;;18.80;96877.00;;;;5013587;28;20225;-88
2023/06/28 01:34:36;;;;;;;9.40;8.33;;;;;18.40;96877.00;;;;5009374;28;20693;-89
2023/06/28 01:37:26;;;;;;;8.23;7.30;;;;;18.00;96882.00;;;;5026131;28;20247;-88
2023/06/28 01:40:19;;;;;;;8.97;8.07;;;;;18.00;96883.00;;;;5023351;28;20237;-87
2023/06/28 01:43:09;;;;;;;8.27;7.47;;;;;18.30;96879.00;;;;5030337;28;20202;-88
2023/06/28 01:46:01;;;;;;;11.13;7.27;;;;;18.40;96879.00;;;;5026726;28;20269;-88
2023/06/28 01:48:51;;;;;;;9.67;8.47;;;;;18.50;96888.00;;;;5026134;28;20260;-87
2023/06/28 01:51:40;;;;;;;8.47;7.57;;;;;18.60;96886.00;;;;5018682;28;20240;-87
2023/06/28 01:54:32;;;;;;;10.60;8.47;;;;;18.60;96881.00;;;;5025205;28;20194;-87
2023/06/28 01:57:23;;;;;;;11.00;8.70;;;;;18.70;96887.00;;;;5018401;28;20232;-88
2023/06/28 02:00:15;;;;;;;10.27;8.93;;;;;18.70;96876.00;;;;5018354;28;20226;-88
2023/06/28 02:03:04;;;;;;;10.47;9.37;;;;;18.70;96879.00;;;;5029678;28;20205;-89
2023/06/28 02:05:53;;;;;;;10.37;8.83;;;;;18.70;96877.00;;;;5032699;28;20275;-89
2023/06/28 02:08:43;;;;;;;13.17;9.27;;;;;18.70;96886.00;;;;5032242;28;20209;-89
2023/06/28 02:11:32;;;;;;;12.77;8.07;;;;;18.60;96884.00;;;;5028255;28;20705;-88
2023/06/28 02:14:23;;;;;;;10.50;7.63;;;;;18.20;96884.00;;;;5025168;28;20554;-89
2023/06/28 02:17:14;;;;;;;9.23;7.30;;;;;18.30;96888.00;;;;5026277;28;20556;-89
2023/06/28 02:20:04;;;;;;;6.50;5.43;;;;;18.30;96892.00;;;;5024890;28;20233;-89
2023/06/28 02:22:55;;;;;;;8.57;5.67;;;;;18.40;96883.00;;;;5031308;28;20685;-89
2023/06/28 02:25:44;;;;;;;6.53;5.80;;;;;18.30;96886.00;;;;5030919;28;20206;-89
2023/06/28 02:28:33;;;;;;;7.97;6.43;;;;;18.10;96883.00;;;;5029928;28;20213;-89
2023/06/28 02:31:25;;;;;;;7.23;6.50;;;;;17.80;96875.00;;;;5031633;28;20225;-90
2023/06/28 02:34:14;;;;;;;15.63;6.13;;;;;17.70;96874.00;;;;5025571;28;20205;-90
2023/06/28 02:37:03;;;;;;;8.13;5.80;;;;;17.90;96876.00;;;;5020284;28;20725;-88
2023/06/28 02:39:53;;;;;;;6.13;5.50;;;;;17.50;96877.00;;;;5032355;28;20259;-88
2023/06/28 02:42:42;;;;;;;7.47;5.07;;;;;17.50;96880.00;;;;5031720;28;20681;-89
2023/06/28 02:45:31;;;;;;;10.40;5.10;;;;;17.10;96886.00;;;;5031518;28;20201;-89
2023/06/28 02:48:22;;;;;;;6.83;4.77;;;;;17.00;96894.00;;;;5031569;28;20259;-89
2023/06/28 02:51:11;;;;;;;5.73;3.97;;;;;17.20;96906.00;;;;5025565;28;20771;-88
2023/06/28 02:54:00;;;;;;;5.00;4.50;;;;;17.30;96907.00;;;;5024705;28;20216;-87
2023/06/28 02:56:50;;;;;;;8.97;3.87;;;;;17.20;96910.00;;;;5031101;28;20235;-87
2023/06/28 02:59:39;;;;;;;4.00;3.27;;;;;16.80;96911.00;;;;5028889;28;20614;-89
2023/06/28 03:02:28;;;;;;;3.63;2.90;;;;;16.60;96909.00;;;;5022393;28;20736;-87
2023/06/28 03:05:19;;;;;;;6.37;3.80;;;;;16.70;96918.00;;;;5028214;28;20213;-88
2023/06/28 03:08:08;;;;;;;4.50;3.33;;;;;16.70;96922.00;;;;5028990;28;20193;-87
2023/06/28 03:10:58;;;;;;;4.67;4.10;;;;;16.70;96921.00;;;;5025739;28;20265;-88
2023/06/28 03:13:47;;;;;;;4.97;2.97;;;;;16.80;96917.00;;;;5027209;28;20683;-88
2023/06/28 03:16:37;;;;;;;6.43;3.73;;;;;16.90;96931.00;;;;5022712;28;20216;-87
2023/06/28 03:19:26;;;;;;;3.83;3.33;;;;;16.80;96937.00;;;;5029698;28;20244;-88
2023/06/28 03:22:17;;;;;;;6.87;3.13;;;;;16.50;96927.00;;;;5025603;28;20225;-87
2023/06/28 03:25:06;;;;;;;5.47;3.17;;;;;16.30;96926.00;;;;5032494;28;20244;-88
2023/06/28 03:27:56;;;;;;;2.70;2.50;;;;;15.80;96923.00;;;;5031097;28;20251;-88
2023/06/28 03:30:45;;;;;;;4.33;2.70;;;;;16.10;96933.00;;;;5031474;28;20249;-88
2023/06/28 03:33:34;;;;;;;3.10;2.80;;;;;16.00;96922.00;;;;5031847;28;20209;-87
2023/06/28 03:36:27;;;;;;;4.67;3.00;;;;;16.10;96919.00;;;;5031515;28;20197;-88
2023/06/28 03:39:18;;;;;;;4.47;2.73;;;;;16.00;96930.00;;;;5026940;28;20275;-87
2023/06/28 03:42:08;;;;;;;5.97;3.27;;;;;16.10;96931.00;;;;5029389;28;20229;-88
2023/06/28 03:44:57;;;;;;;5.13;3.63;;;;;16.00;96933.00;;;;5020807;28;20721;-87
2023/06/28 03:47:47;;;;;;;3.60;3.30;;;;;16.00;96942.00;;;;5022736;28;20224;-88
2023/06/28 03:50:36;;;;;;;5.60;3.00;;;;;16.00;96939.00;;;;5024238;28;20695;-88
2023/06/28 03:53:26;;;;;;;2.80;2.50;;;;;16.10;96947.00;;;;5024626;28;20296;-89
2023/06/28 03:56:16;;;;;;;4.40;3.23;;;;;16.00;96951.00;;;;5027881;28;20205;-87
2023/06/28 03:59:05;;;;;;;7.80;3.47;;;;;16.10;96950.00;;;;5011250;28;20193;-88
2023/06/28 04:01:55;;;;;;;3.53;3.13;;;;;16.10;96956.00;;;;5022558;28;20233;-87
2023/06/28 04:04:44;;;;;;;3.00;2.80;;;;;16.10;96956.00;;;;5027877;28;20224;-88
2023/06/28 04:07:33;;;;;;;6.63;3.07;;;;;16.10;96956.00;;;;5029895;28;20201;-87
2023/06/28 04:10:22;;;;;;;5.40;2.40;;;;;16.20;96972.00;;;;5024543;28;20217;-87
2023/06/28 04:13:13;;;;;;;6.30;3.03;;;;;16.10;96974.00;;;;5022401;28;20202;-87
2023/06/28 04:16:03;;;;;;;3.57;2.67;;;;;16.20;96978.00;;;;5029702;28;21118;-87
2023/06/28 04:18:53;;;;;;;7.93;3.10;;;;;16.10;96975.00;;;;5023780;28;20201;-86
2023/06/28 04:21:42;;;;;;;3.53;3.03;;;;;16.00;96981.00;;;;5029307;28;20661;-87
2023/06/28 04:24:31;;;;;;;3.73;3.00;;;;;16.10;96992.00;;;;5027974;28;20213;-87
2023/06/28 04:27:20;;;;;;;4.63;3.07;;;;;15.80;96992.00;;;;5029357;28;20246;-86
2023/06/28 04:30:11;;;;;;;4.17;3.00;;;;;16.00;96988.00;;;;5023939;28;20198;-87
2023/06/28 04:33:04;;;;;;;7.47;2.53;;;;;16.10;96992.00;;;;5019714;28;20559;-87
2023/06/28 04:35:56;;;;;;;4.43;2.50;;;;;16.10;96999.00;;;;5029525;28;20205;-87
2023/06/28 04:38:45;;;;;;;2.87;2.57;;;;;16.20;96999.00;;;;5029536;28;20212;-87
2023/06/28 04:41:34;;;;;;;2.80;2.50;;;;;16.30;97003.00;;;;5021675;28;20241;-87
2023/06/28 04:45:14;;;;;;;2.83;2.60;;;;;16.40;97006.00;;;;5030539;28;20193;-91
2023/06/28 04:48:06;;;;;;;4.63;2.30;;;;;16.10;97007.00;;;;5012029;28;20217;-87
2023/06/28 04:50:55;;;;;;;2.40;2.27;;;;;16.10;96990.00;;;;5022392;28;20571;-86
2023/06/28 04:53:44;;;;;;;5.23;2.57;;;;;16.10;96997.00;;;;5019354;28;20702;-87
2023/06/28 04:56:34;;;;;;;3.03;2.63;;;;;16.30;97017.00;;;;5024190;28;20212;-87
2023/06/28 04:59:23;;;;;;;3.63;2.50;;;;;16.20;97017.00;;;;5027312;28;20239;-87
2023/06/28 05:02:14;;;;;;;2.80;2.20;;;;;16.20;97013.00;;;;5029658;28;20232;-88
2023/06/28 05:05:06;;;;;;;2.83;2.07;;;;;16.30;97006.00;;;;5026077;28;20701;-88
2023/06/28 05:07:55;;;;;;;3.93;2.77;;;;;16.30;96999.00;;;;5023933;28;20201;-87
2023/06/28 05:10:44;;;;;;;3.60;2.70;;;;;16.20;96999.00;;;;5028451;28;20225;-87
2023/06/28 05:13:34;;;;;;;5.13;3.17;;;;;16.40;96998.00;;;;5019610;28;20209;-87
2023/06/28 05:16:23;;;;;;;3.33;3.03;;;;;16.40;97001.00;;;;5008189;28;20213;-87
2023/06/28 05:19:12;;;;;;;3.50;2.47;;;;;16.50;97005.00;;;;5024083;28;20197;-87
2023/06/28 05:22:03;;;;;;;3.10;2.67;;;;;16.60;97007.00;;;;5027467;28;20225;-87
2023/06/28 05:24:52;;;;;;;3.23;2.87;;;;;16.50;97003.00;;;;5027769;28;20202;-87
2023/06/28 05:27:41;;;;;;;4.00;2.67;;;;;16.60;97012.00;;;;5032742;28;20235;-87
2023/06/28 05:30:31;;;;;;;2.90;2.60;;;;;16.70;97003.00;;;;5022378;28;20626;-91
2023/06/28 05:33:20;;;;;;;3.03;2.73;;;;;16.40;97004.00;;;;5019048;28;20267;-87
2023/06/28 05:36:09;;;;;;;2.87;2.57;;;;;16.30;97015.00;;;;5024583;28;20201;-88
2023/06/28 05:39:00;;;;;;;4.67;3.10;;;;;16.30;96999.00;;;;5021719;28;20820;-88
2023/06/28 05:41:49;;;;;;;5.63;2.80;;;;;16.10;97000.00;;;;5028408;28;20279;-88
2023/06/28 05:44:39;;;;;;;3.03;2.83;;;;;16.60;96990.00;;;;5024085;28;20622;-89
2023/06/28 05:47:34;;;;;;;7.10;2.97;;;;;16.80;96997.00;;;;5036098;28;20196;-87
2023/06/28 05:50:23;;;;;;;9.87;2.90;;;;;17.00;96997.00;;;;5028773;28;20229;-92
2023/06/28 05:53:13;;;;;;;4.83;3.13;;;;;16.90;96997.00;;;;5027886;28;20208;-88
2023/06/28 05:56:06;;;;;;;4.83;3.27;;;;;17.00;97004.00;;;;5035404;28;20209;-87
2023/06/28 05:59:00;;;;;;;3.53;3.23;;;;;17.50;96992.00;;;;5017364;28;20213;-88
2023/06/28 06:01:50;;;;;;;3.60;3.23;;;;;18.00;96989.00;;;;5026614;28;20225;-88
2023/06/28 06:04:40;;;;;;;4.67;3.77;;;;;18.20;96990.00;;;;5025998;28;20202;-89
2023/06/28 06:07:29;;;;;;;3.03;2.83;;;;;18.30;96998.00;;;;5021764;28;20972;-88
2023/06/28 06:10:19;;;;;;;4.83;2.80;;;;;18.10;97006.00;;;;5026751;28;20606;-88
2023/06/28 06:13:09;;;;;;;3.77;3.03;;;;;18.60;96991.00;;;;5023073;28;20205;-88
2023/06/28 06:15:59;;;;;;;3.43;2.97;;;;;18.90;97003.00;;;;5025025;28;20234;-88
2023/06/28 06:18:48;;;;;;;5.70;2.67;;;;;18.90;96986.00;;;;5026851;28;20267;-88
2023/06/28 06:21:37;;;;;;;3.13;2.47;;;;;19.40;96990.00;;;;5024507;28;20770;-87
2023/06/28 06:24:26;;;;;;;3.90;2.03;;;;;19.50;96996.00;;;;5021399;28;20221;-88
2023/06/28 06:27:16;;;;;;;2.43;1.70;;;;;19.80;96993.00;;;;5026046;28;20224;-89
2023/06/28 06:30:10;;;;;;;4.43;2.17;;;;;20.00;96996.00;;;;5021255;28;20738;-88
2023/06/28 06:32:59;;;;;;;4.00;1.53;;;;;20.00;96993.00;;;;5020354;28;20545;-88
2023/06/28 06:35:50;;;;;;;5.10;1.60;;;;;20.20;96983.00;;;;5024685;28;20209;-88
2023/06/28 06:38:39;;;;;;;1.93;1.43;;;;;20.10;96985.00;;;;5027346;28;20228;-87
2023/06/28 06:41:29;;;;;;;2.23;1.30;;;;;19.70;96984.00;;;;5030243;28;20240;-88
2023/06/28 06:44:19;;;;;;;2.53;1.80;;;;;19.90;96972.00;;;;5029079;28;20259;-88
2023/06/28 06:47:10;;;;;;;3.03;1.47;;;;;20.30;96982.00;;;;5021556;28;20205;-91
2023/06/28 06:49:59;;;;;;;3.43;1.70;;;;;19.90;96982.00;;;;5026797;28;20209;-87
2023/06/28 06:52:50;;;;;;;2.83;1.40;;;;;20.00;96988.00;;;;5025030;28;20209;-88
2023/06/28 06:55:43;;;;;;;1.37;1.27;;;;;19.60;96986.00;;;;5031314;28;20205;-89
2023/06/28 06:58:34;;;;;;;1.90;1.40;;;;;20.10;96993.00;;;;5029516;28;20204;-88
2023/06/28 07:01:23;;;;;;;1.70;1.33;;;;;20.60;96980.00;;;;5031823;28;20237;-89
2023/06/28 07:04:14;;;;;;;0.83;0.83;;;;;20.80;96991.00;;;;5021938;28;20670;-89
2023/06/28 07:07:04;;;;;;;1.83;1.10;;;;;20.90;96999.00;;;;5026600;28;20201;-89
2023/06/28 07:09:54;;;;;;;1.10;0.87;;;;;20.10;96982.00;;;;5032128;28;20205;-88
2023/06/28 07:12:46;;;;;;;0.90;0.90;;;;;20.00;96993.00;;;;5034805;28;20204;-89
2023/06/28 07:15:36;;;;;;;1.73;1.30;;;;;20.20;96998.00;;;;5028483;28;20205;-89
2023/06/28 07:18:25;;;;;;;1.37;1.10;;;;;20.60;96998.00;;;;5026600;28;20202;-89
2023/06/28 07:21:16;;;;;;;4.10;1.17;;;;;20.90;96993.00;;;;5022803;28;20235;-88
2023/06/28 07:24:06;;;;;;;1.20;1.10;;;;;21.00;97003.00;;;;5030521;28;20267;-88
2023/06/28 07:26:56;;;;;;;3.13;1.03;;;;;21.10;96988.00;;;;5031108;28;20213;-90
2023/06/28 07:29:45;;;;;;;1.17;0.90;;;;;21.90;96986.00;;;;5034810;28;20204;-89
2023/06/28 07:32:34;;;;;;;1.40;1.17;;;;;22.60;96990.00;;;;5028420;28;20291;-88
2023/06/28 07:35:23;;;;;;;1.10;1.00;;;;;22.80;97002.00;;;;5030165;28;20635;-89
2023/06/28 07:38:14;;;;;;;3.90;0.90;;;;;22.50;96983.00;;;;5019804;28;21003;-89
2023/06/28 07:41:04;;;;;;;1.60;0.80;;;;;22.90;96992.00;;;;5030644;28;20229;-88
2023/06/28 07:43:54;;;;;;;1.13;1.00;;;;;22.90;96996.00;;;;5023297;28;20206;-90
2023/06/28 07:46:43;;;;;;;0.80;0.80;;;;;23.00;96978.00;;;;5030207;28;22444;-88
2023/06/28 07:49:34;;;;;;;1.77;1.10;;;;;23.20;96988.00;;;;5028799;28;20206;-91
2023/06/28 07:52:23;;;;;;;2.13;0.97;;;;;23.40;97000.00;;;;5029325;28;20209;-90
2023/06/28 07:55:14;;;;;;;1.80;1.00;;;;;22.90;96981.00;;;;5026514;28;20284;-89
2023/06/28 07:58:03;;;;;;;1.00;0.90;;;;;23.80;96973.00;;;;5022708;28;20216;-91
2023/06/28 08:00:53;;;;;;;2.90;1.03;;;;;23.50;96982.00;;;;5027718;28;20260;-88
2023/06/28 08:03:44;;;;;;;1.30;1.00;;;;;23.40;97002.00;;;;5028544;28;20221;-89
2023/06/28 08:06:34;;;;;;;1.17;1.07;;;;;23.20;96991.00;;;;5029339;28;20205;-89
2023/06/28 08:09:23;;;;;;;1.27;1.17;;;;;22.20;96978.00;;;;5029281;28;20756;-89
2023/06/28 08:12:14;;;;;;;2.50;1.27;;;;;22.60;96974.00;;;;5027225;28;20245;-88
2023/06/28 08:15:03;;;;;;;1.40;1.03;;;;;23.90;96968.00;;;;5029104;28;20205;-90
2023/06/28 08:17:53;;;;;;;1.20;0.83;;;;;24.30;96966.00;;;;5026867;28;20197;-89
2023/06/28 08:20:47;;;;;;;1.67;0.73;;;;;24.70;96966.00;;;;5027693;28;20274;-90
2023/06/28 08:23:37;;;;;;;1.27;1.17;;;;;24.80;96964.00;;;;5023341;28;20282;-90
2023/06/28 08:26:26;;;;;;;3.63;1.30;;;;;25.00;96958.00;;;;5029936;28;20201;-89
2023/06/28 08:29:17;;;;;;;1.23;1.00;;;;;25.00;96952.00;;;;5027722;28;20213;-89
2023/06/28 08:32:07;;;;;;;0.93;0.70;;;;;25.50;96946.00;;;;5024504;28;20702;-91
2023/06/28 08:35:12;;;;;;;0.90;0.80;;;;;25.60;96945.00;;;;5019963;28;20201;-89
2023/06/28 08:38:01;;;;;;;1.00;0.90;;;;;25.40;96946.00;;;;5029196;28;20610;-89
2023/06/28 08:40:50;;;;;;;1.10;1.00;;;;;25.40;96934.00;;;;5028876;28;20307;-90
2023/06/28 08:43:40;;;;;;;1.13;1.03;;;;;25.40;96938.00;;;;5023856;28;20278;-90
2023/06/28 08:46:31;;;;;;;0.53;0.53;;;;;24.00;96933.00;;;;5030302;28;20559;-89
2023/06/28 08:49:21;;;;;;;2.30;0.80;;;;;24.30;96929.00;;;;5024117;28;20224;-89
2023/06/28 08:52:11;;;;;;;0.40;0.40;;;;;25.40;96930.00;;;;5025412;28;20229;-90
2023/06/28 08:55:00;;;;;;;0.70;0.67;;;;;24.80;96946.00;;;;5026031;28;20201;-88
2023/06/28 08:57:55;;;;;;;1.10;0.77;;;;;24.50;96938.00;;;;5021370;28;20579;-89
2023/06/28 09:00:45;;;;;;;0.90;0.67;;;;;25.90;96939.00;;;;5027531;28;20243;-90
2023/06/28 09:03:41;;;;;;;0.73;0.73;;;;;25.60;96930.00;;;;5027319;28;20244;-89
2023/06/28 09:06:30;;;;;;;1.17;0.70;;;;;26.10;96934.00;;;;5028549;28;20201;-88
2023/06/28 09:09:20;;;;;;;1.60;0.60;;;;;26.30;96945.00;;;;5024233;28;20220;-88
2023/06/28 09:12:10;;;;;;;0.77;0.77;;;;;25.80;96946.00;;;;5026711;28;20237;-88
2023/06/28 09:15:00;;;;;;;0.83;0.73;;;;;24.80;96954.00;;;;5023890;28;20206;-88
2023/06/28 09:17:49;;;;;;;1.00;0.90;;;;;22.30;96938.00;;;;5024905;28;20213;-87
2023/06/28 09:20:52;;;;;;;0.80;0.70;;;;;21.20;96942.00;;;;5028887;28;20287;-85
2023/06/28 09:23:41;;;;;;;1.57;0.80;;;;;21.40;96941.00;;;;5027901;28;20775;-87
2023/06/28 09:26:32;;;;;;;2.93;0.87;;;;;22.00;96907.00;;;;5025510;28;20232;-89
2023/06/28 09:29:21;;;;;;;1.13;0.80;;;;;22.00;96925.00;;;;5021080;28;20202;-88
2023/06/28 09:32:11;;;;;;;1.77;0.60;;;;;22.20;96927.00;;;;5022680;28;20229;-86
2023/06/28 09:35:00;;;;;;;1.17;0.70;;;;;22.20;96929.00;;;;5022917;28;20205;-86
2023/06/28 09:37:54;;;;;;;0.60;0.60;;;;;21.90;96921.00;;;;5023886;28;20224;-88
2023/06/28 09:40:47;;;;;;;0.80;0.80;;;;;21.80;96924.00;;;;5020863;28;20225;-87
2023/06/28 09:43:45;;;;;;;1.17;0.73;;;;;21.80;96939.00;;;;5019196;28;20278;-88
2023/06/28 09:47:04;;;;;;;1.17;1.07;;;;;21.70;96929.00;;;;5024019;28;20255;-88
2023/06/28 09:50:02;;;;;;;2.50;1.37;;;;;22.00;96926.00;;;;5023384;28;20201;-87
2023/06/28 09:52:56;;;;;;;6.10;1.10;;;;;22.10;96932.00;;;;5027162;28;20271;-87
2023/06/28 09:55:47;;;;;;;0.60;0.60;;;;;22.40;96937.00;;;;5023706;28;20238;-89
2023/06/28 09:58:40;;;;;;;2.20;1.00;;;;;22.10;96932.00;;;;5024913;28;20233;-87
2023/06/28 10:01:30;;;;;;;1.07;0.90;;;;;21.60;96932.00;;;;5027461;28;20238;-89
2023/06/28 10:04:19;;;;;;;0.87;0.63;;;;;21.90;96929.00;;;;5024638;28;20892;-88
2023/06/28 10:07:18;;;;;;;1.17;0.87;;;;;22.00;96919.00;;;;5029274;28;20201;-88
2023/06/28 10:13:21;;;;;;;0.97;0.80;;;;;22.60;96927.00;;;;5023792;28;20201;-88
2023/06/28 10:16:16;;;;;;;1.00;0.90;;;;;22.60;96933.00;;;;5028304;28;20588;-88
2023/06/28 10:19:06;;;;;;;1.57;1.00;;;;;22.80;96933.00;;;;5029166;28;20252;-88
2023/06/28 10:21:56;;;;;;;1.87;1.00;;;;;22.90;96928.00;;;;5028950;28;20225;-87
2023/06/28 10:24:46;;;;;;;1.03;0.60;;;;;23.40;96923.00;;;;5030136;28;20312;-87
2023/06/28 10:27:37;;;;;;;1.13;0.90;;;;;23.70;96921.00;;;;5031477;28;20263;-89
2023/06/28 10:30:27;;;;;;;1.70;0.87;;;;;24.00;96912.00;;;;5030565;28;20267;-88
2023/06/28 10:33:17;;;;;;;1.07;0.77;;;;;23.40;96918.00;;;;5032152;28;20220;-87
2023/06/28 10:36:07;;;;;;;2.10;1.00;;;;;24.60;96900.00;;;;5026428;28;20213;-89
2023/06/28 10:38:57;;;;;;;1.10;0.97;;;;;24.60;96927.00;;;;5031585;28;20843;-89
2023/06/28 10:41:46;;;;;;;0.70;0.57;;;;;24.50;96928.00;;;;5030463;28;20232;-88
2023/06/28 10:44:52;;;;;;;2.90;0.57;;;;;24.00;96921.00;;;;5029197;28;20209;-88
2023/06/28 10:47:59;;;;;;;0.73;0.53;;;;;24.60;96928.00;;;;5027094;28;20209;-87
2023/06/28 10:50:53;;;;;;;1.00;0.90;;;;;24.70;96918.00;;;;5023821;28;20627;-88
2023/06/28 10:53:52;;;;;;;2.30;0.93;;;;;23.70;96929.00;;;;5037606;28;20207;-88
2023/06/28 10:56:47;;;;;;;0.83;0.83;;;;;24.40;96922.00;;;;5034300;28;20201;-88
2023/06/28 10:59:42;;;;;;;0.97;0.80;;;;;23.50;96900.00;;;;5032399;28;20258;-89
2023/06/28 11:02:52;;;;;;;0.73;0.70;;;;;25.40;96909.00;;;;5029052;28;20214;-88
2023/06/28 11:06:00;;;;;;;1.47;0.90;;;;;25.90;96858.00;;;;5029975;28;20217;-88
2023/06/28 11:08:49;;;;;;;1.03;0.80;;;;;25.40;96866.00;;;;5030513;28;20258;-88
2023/06/28 11:11:56;;;;;;;0.60;0.50;;;;;24.60;96899.00;;;;5027767;28;20229;-87
2023/06/28 11:14:46;;;;;;;1.17;1.00;;;;;24.30;96881.00;;;;5029294;28;20666;-88
2023/06/28 11:17:35;;;;;;;0.60;0.60;;;;;25.80;96841.00;;;;5027802;28;20678;-87
2023/06/28 11:20:25;;;;;;;2.20;0.80;;;;;25.80;96837.00;;;;5030111;28;20320;-87
2023/06/28 11:23:30;;;;;;;0.70;0.70;;;;;27.90;96842.00;;;;5024975;28;20231;-88
2023/06/28 11:26:32;;;;;;;0.77;0.67;;;;;29.30;96856.00;;;;5028168;28;20191;-88
2023/06/28 11:29:22;;;;;;;1.17;0.93;;;;;28.90;96888.00;;;;5025442;28;20205;-88
2023/06/28 11:32:13;;;;;;;3.83;1.00;;;;;28.50;96883.00;;;;5024146;28;20227;-88
2023/06/28 11:35:03;;;;;;;1.63;0.93;;;;;28.00;96887.00;;;;5027190;28;20703;-89
2023/06/28 11:37:56;;;;;;;0.93;0.73;;;;;27.30;96899.00;;;;5019614;28;20214;-88
2023/06/28 11:40:46;;;;;;;2.47;0.97;;;;;27.30;96900.00;;;;5027024;28;20230;-88
2023/06/28 11:43:35;;;;;;;2.47;1.10;;;;;27.00;96904.00;;;;5023536;28;20710;-89
2023/06/28 11:46:25;;;;;;;2.93;0.70;;;;;26.90;96915.00;;;;5024680;28;20242;-88
2023/06/28 11:49:16;;;;;;;1.13;0.93;;;;;26.20;96910.00;;;;5024449;28;20748;-88
2023/06/28 11:52:07;;;;;;;1.03;0.73;;;;;26.50;96909.00;;;;5023510;28;20222;-88
2023/06/28 11:54:58;;;;;;;0.67;0.57;;;;;24.80;96901.00;;;;5027994;28;20210;-88
2023/06/28 11:57:48;;;;;;;2.87;0.90;;;;;25.30;96822.00;;;;5029909;28;20230;-87
2023/06/28 12:00:40;;;;;;;1.20;0.93;;;;;28.50;96823.00;;;;5022736;28;20284;-89
2023/06/28 12:03:34;;;;;;;4.73;1.20;;;;;28.30;96825.00;;;;5026164;28;20229;-88
2023/06/28 12:06:25;;;;;;;0.80;0.70;;;;;28.40;96829.00;;;;5027483;28;20561;-87
2023/06/28 12:09:21;;;;;;;2.93;1.10;;;;;28.00;96807.00;;;;5026499;28;20772;-89
2023/06/28 12:12:11;;;;;;;1.10;0.80;;;;;28.40;96871.00;;;;5024593;28;20227;-88
2023/06/28 12:15:02;;;;;;;0.60;0.60;;;;;26.80;96832.00;;;;5027701;28;20206;-88
2023/06/28 12:17:51;;;;;;;1.63;1.03;;;;;25.90;96867.00;;;;5029693;28;20212;-90
2023/06/28 12:20:40;;;;;;;1.00;0.83;;;;;25.40;96871.00;;;;5028937;28;20234;-88
2023/06/28 12:23:31;;;;;;;1.63;1.03;;;;;24.70;96865.00;;;;5028595;28;20587;-88
2023/06/28 12:26:23;;;;;;;1.07;0.90;;;;;26.10;96803.00;;;;5017964;28;20220;-88
2023/06/28 12:29:12;;;;;;;6.83;1.07;;;;;27.20;96798.00;;;;5026517;28;20274;-88
2023/06/28 12:32:06;;;;;;;1.63;1.27;;;;;26.90;96867.00;;;;5021306;28;20230;-88
2023/06/28 12:34:55;;;;;;;0.93;0.83;;;;;25.10;96860.00;;;;5028637;28;20208;-83
2023/06/28 12:37:44;;;;;;;1.23;0.90;;;;;24.60;96869.00;;;;5027460;28;20292;-88
2023/06/28 12:44:21;;;;;;;1.03;0.90;;;;;24.20;96866.00;;;;5024866;28;20244;-88
2023/06/28 12:47:13;;;;;;;5.30;1.10;;;;;23.80;96862.00;;;;5025017;28;20209;-87
2023/06/28 12:50:13;;;;;;;1.30;1.00;;;;;23.60;96872.00;;;;5023946;28;20251;-88
2023/06/28 12:53:15;;;;;;;1.23;0.80;;;;;23.80;96877.00;;;;5025651;28;20197;-88
2023/06/28 12:56:09;;;;;;;1.20;1.10;;;;;24.00;96869.00;;;;5021614;28;20980;-88
2023/06/28 12:58:59;;;;;;;1.00;0.90;;;;;25.90;96813.00;;;;5014772;28;20201;-88
2023/06/28 13:01:50;;;;;;;2.07;1.00;;;;;26.40;96797.00;;;;5027166;28;20264;-87
2023/06/28 13:04:40;;;;;;;2.97;1.10;;;;;27.90;96796.00;;;;5024703;28;21144;-88
2023/06/28 13:07:30;;;;;;;1.93;1.10;;;;;27.40;96794.00;;;;5027496;28;20225;-89
2023/06/28 13:10:22;;;;;;;1.23;1.10;;;;;28.20;96792.00;;;;5021723;28;20218;-90
2023/06/28 13:13:12;;;;;;;1.87;1.17;;;;;29.00;96785.00;;;;5027241;28;20666;-89
2023/06/28 13:16:01;;;;;;;3.07;0.97;;;;;30.10;96863.00;;;;5022520;28;20211;-89
2023/06/28 13:19:24;;;;;;;1.33;0.83;;;;;28.80;96850.00;;;;5029032;28;20620;-88
2023/06/28 13:22:16;;;;;;;1.20;1.07;;;;;26.10;96857.00;;;;5024690;28;20218;-88
2023/06/28 13:25:06;;;;;;;0.90;0.80;;;;;25.00;96804.00;;;;5025010;28;20210;-86
2023/06/28 13:28:00;;;;;;;1.50;0.97;;;;;25.90;96848.00;;;;5029252;28;20222;-92
2023/06/28 13:30:50;;;;;;;3.43;1.23;;;;;26.20;96771.00;;;;5028637;28;20233;-88
2023/06/28 13:33:39;;;;;;;4.27;1.17;;;;;29.10;96835.00;;;;5025500;28;20210;-89
2023/06/28 13:36:30;;;;;;;2.03;0.93;;;;;28.70;96776.00;;;;5025783;28;20198;-88
2023/06/28 13:39:19;;;;;;;1.70;1.00;;;;;29.50;96821.00;;;;5030625;28;20204;-90
2023/06/28 13:42:22;;;;;;;1.63;1.00;;;;;30.70;96787.00;;;;5021052;28;20238;-89
2023/06/28 13:45:14;;;;;;;1.10;1.00;;;;;28.00;96861.00;;;;5014205;28;20807;-89
2023/06/28 13:51:26;;;;;;;2.97;1.07;;;;;27.10;96826.00;;;;5025547;28;20228;-89
2023/06/28 13:54:19;;;;;;;1.63;1.00;;;;;29.80;96783.00;;;;5023888;28;20565;-88
2023/06/28 13:57:16;;;;;;;2.33;1.00;;;;;27.40;96787.00;;;;5031684;28;20206;-89
2023/06/28 14:00:10;;;;;;;1.63;1.20;;;;;29.80;96794.00;;;;5025864;28;20705;-91
2023/06/28 14:03:04;;;;;;;0.90;0.90;;;;;31.30;96795.00;;;;5026513;28;20211;-88
2023/06/28 14:06:04;;;;;;;1.20;0.87;;;;;32.50;96783.00;;;;5032839;28;20210;-90
2023/06/28 14:08:53;;;;;;;1.33;1.23;;;;;31.60;96842.00;;;;5025520;28;20203;-89
2023/06/28 14:11:48;;;;;;;1.70;1.13;;;;;31.10;96846.00;;;;5029149;28;20231;-90
2023/06/28 14:14:42;;;;;;;3.33;1.00;;;;;29.30;96778.00;;;;5025265;28;20237;-91
2023/06/28 14:17:34;;;;;;;0.85;0.82;;;;;29.40;96840.00;;;;5032589;28;20211;-90
2023/06/28 14:20:26;;;;;;;1.92;1.00;;;;;32.20;96773.00;;;;5030479;28;20262;-90
2023/06/28 14:23:29;;;;;;;0.98;0.90;;;;;33.20;96775.00;;;;5032409;28;20204;-92
2023/06/28 14:26:21;;;;;;;0.90;0.77;;;;;33.70;96775.00;;;;5022370;28;20202;-91